SHMÚ vydal meteorologické výstrahy na Storm Display warnings

METAR

Aeronautical MET Report METAR

METAR description (Slovak)

24.07.2016 - 14:30 UTC

METAR LZIB 241430Z 06003KT 360V120 9999 SCT037 28/19 Q1017 NOSIG=
METAR LZKZ 241430Z VRB01KT CAVOK 29/15 Q1017 NOSIG=
METAR LZPP 241430Z 24004KT 160V300 9999 SCT035 28/19 Q1017=
METAR LZSL 241430Z 20007KT 150V230 9999 SCT045TCU 29/18 Q1018=
METAR LZTT 241430Z 26006KT 9999 FEW040 BKN053 BKN080 22/17 Q1020
NOSIG=
METAR LZZI 241430Z 06011KT 9999 SCT041 FEW045CB 23/18 Q1018 RETS=

24.07.2016 - 14:00 UTC

METAR LZIB 241400Z VRB04KT 9999 SCT037 28/19 Q1017 NOSIG=
METAR LZKZ 241400Z 05003KT 010V100 CAVOK 29/13 Q1017 NOSIG=
METAR LZPP 241400Z VRB02KT 9999 SCT033 27/19 Q1017=
METAR LZSL 241400Z 20005KT 160V250 9999 FEW040TCU 29/18 Q1018=
METAR LZTT 241400Z 27006KT 9999 -SHRA FEW036 BKN050 BKN083 21/17
Q1020 NOSIG=
METAR LZZI 241400Z 05009KT 9999 VCTS SCT034 FEW045CB 24/18 Q1018=

24.07.2016 - 14:00 UTC

METAR LZMC 241400Z 00000KT 9999 SCT038 29/17 Q1017=
METAR LZPW 241400Z VRB02KT CAVOK 30/11 Q1017=

 

 

skok na menu ↑


skok na začiatok stránky ↑